MMVA/VSA METAR and TAF weather

Enter ICAO airport designator
Station Type Date Time Source
MMVA METAR 2022/11/26 02:47 UTC NOAA

MMVA 260247Z 00000KT 6SM SCT015 SCT070 BKN210 26/25 A2991 RMK SLP127 52024 907 8/163 DSNT CB NNW HZY


Station Type Date Time Source
MMVA Decoded METAR 2022/11/26 02:47 UTC NOAA

Villahermosa , Mexico (MMVA) 18-00N 092-49W
Nov 25, 2022 - 09:47 PM EST / 2022.11.26 0247 UTC
Wind: Calm:0
Visibility: 6 mile(s):0
Sky conditions: mostly cloudy
Weather: Cumulonimbus clouds observed
Temperature: 78 F (26 C)
Dew Point: 77 F (25 C)
Relative Humidity: 94%
Pressure (altimeter): 29.91 in. Hg (1012 hPa)
Pressure tendency: 0.07 inches (2.4 hPa) higher than three hours ago
ob: MMVA 260247Z 00000KT 6SM SCT015 SCT070 BKN210 26/25 A2991 RMK SLP127 52024 907 8/163 DSNT CB NNW HZY
cycle: 3

Station Type Date Time Source
MMVA TAF 2022/11/26 06:51 UTC NOAA

TAF MMVA 260543Z 2606/2706 00000KT 5SM HZ SCT015 SCT200
FM261000 22005KT 5SM HZ BKN015 BKN070
TEMPO 2611/2615 3SM HZ BKN010
FM261600 32010KT P6SM BKN020
FM262100 22010KT P6SM SCT020 SCT230
FM270300 22005KT P6SM SCT015 SCT210

Example: see airport list